Time;durP1;ratioP1;P1;durP2;ratioP2;P2;SDS_P1;SDS_P2;PMS_P1;PMS_P2;Temp;Humidity;BMP_temperature;BMP_pressure;BME280_temperature;BME280_humidity;BME280_pressure;Samples;Min_cycle;Max_cycle;Signal;HPM_P1;HPM_P2
2022/01/18 00:00:15;;;;;;;17.55;6.85;;;7.90;48.50;;;;;;5057823;28;20028;-81
2022/01/18 00:02:41;;;;;;;11.82;4.65;;;7.60;50.10;;;;;;5065955;28;20029;-80
2022/01/18 00:05:13;;;;;;;8.02;2.50;;;7.80;50.20;;;;;;5056354;28;20519;-80
2022/01/18 00:07:39;;;;;;;10.52;2.78;;;8.30;49.70;;;;;;5052010;28;20029;-80
2022/01/18 00:10:06;;;;;;;5.78;2.38;;;7.70;49.90;;;;;;5061660;28;20035;-80
2022/01/18 00:17:54;;;;;;;7.93;2.40;;;7.40;49.90;;;;;;5091155;28;20162;-81
2022/01/18 00:20:32;;;;;;;7.47;3.83;;;7.20;50.00;;;;;;5073390;28;20035;-80
2022/01/18 00:22:58;;;;;;;8.75;2.70;;;6.80;51.20;;;;;;5063372;28;20029;-80
2022/01/18 00:25:24;;;;;;;9.52;2.78;;;7.00;51.10;;;;;;5070393;28;20028;-80
2022/01/18 00:27:50;;;;;;;23.02;8.43;;;6.60;51.20;;;;;;5074529;28;20595;-80
2022/01/18 00:35:07;;;;;;;22.70;6.57;;;6.70;51.10;;;;;;5090939;28;20094;-81
2022/01/18 00:37:35;;;;;;;34.85;13.60;;;7.00;51.40;;;;;;5070018;28;20016;-80
2022/01/18 00:40:04;;;;;;;27.00;10.35;;;7.70;50.50;;;;;;5058970;28;20066;-81
2022/01/18 00:42:29;;;;;;;12.65;4.85;;;8.10;50.20;;;;;;5053948;28;20036;-80
2022/01/18 00:44:56;;;;;;;29.75;11.23;;;8.40;49.60;;;;;;5081581;28;20125;-80
2022/01/18 00:47:22;;;;;;;11.65;4.30;;;8.40;48.90;;;;;;5073445;28;20036;-80
2022/01/18 00:49:55;;;;;;;9.30;2.25;;;8.20;48.30;;;;;;5066786;28;20040;-80
2022/01/18 00:52:21;;;;;;;9.98;3.15;;;7.80;48.40;;;;;;5071640;28;20024;-80
2022/01/18 00:54:47;;;;;;;10.15;3.13;;;7.80;49.40;;;;;;5067894;28;20039;-81
2022/01/18 00:57:13;;;;;;;15.32;5.82;;;8.20;49.30;;;;;;5018942;28;20025;-80
2022/01/18 00:59:40;;;;;;;7.95;3.10;;;8.90;48.50;;;;;;5054527;28;20028;-81
2022/01/18 01:02:07;;;;;;;6.55;2.70;;;8.80;47.80;;;;;;5059316;28;20043;-80
2022/01/18 01:04:37;;;;;;;9.57;3.22;;;8.70;47.60;;;;;;5067815;28;20016;-80
2022/01/18 01:07:03;;;;;;;5.75;2.10;;;8.20;48.10;;;;;;5052446;28;20040;-80
2022/01/18 01:09:29;;;;;;;6.93;2.40;;;8.20;48.90;;;;;;5051386;28;20476;-80
2022/01/18 01:11:55;;;;;;;7.30;2.63;;;8.30;49.20;;;;;;5053181;28;20491;-80
2022/01/18 01:14:24;;;;;;;6.72;2.22;;;8.50;48.10;;;;;;5051096;28;20483;-79
2022/01/18 01:19:39;;;;;;;6.15;2.17;;;8.80;47.70;;;;;;5053441;28;20479;-80
2022/01/18 01:33:22;;;;;;;5.28;2.17;;;8.20;48.60;;;;;;5060744;28;20169;-79
2022/01/18 01:44:04;;;;;;;6.60;2.35;;;7.70;49.60;;;;;;5057900;28;20526;-79
2022/01/18 01:46:32;;;;;;;8.38;2.78;;;7.60;49.80;;;;;;5055955;28;20082;-80
2022/01/18 01:49:00;;;;;;;7.90;2.58;;;7.40;49.90;;;;;;5054751;28;20079;-80
2022/01/18 01:51:30;;;;;;;7.25;2.33;;;7.40;49.80;;;;;;5065716;28;20063;-79
2022/01/18 01:54:03;;;;;;;7.63;2.30;;;7.10;50.40;;;;;;5075768;28;20013;-79
2022/01/18 01:56:30;;;;;;;6.18;2.40;;;7.40;50.60;;;;;;5071667;28;20497;-79
2022/01/18 01:58:56;;;;;;;6.95;2.33;;;7.60;50.20;;;;;;5073988;28;20024;-82
2022/01/18 02:01:22;;;;;;;10.05;2.78;;;7.50;49.80;;;;;;5066940;28;20021;-79
2022/01/18 02:03:49;;;;;;;7.53;2.70;;;7.70;49.90;;;;;;5055374;28;20025;-79
2022/01/18 02:06:15;;;;;;;6.70;2.17;;;7.80;49.10;;;;;;5054062;28;20046;-79
2022/01/18 02:08:42;;;;;;;7.03;2.33;;;7.70;49.60;;;;;;5075050;28;20060;-79
2022/01/18 02:11:09;;;;;;;13.93;4.70;;;7.70;49.90;;;;;;5075027;28;20028;-79
2022/01/18 02:13:35;;;;;;;14.25;6.53;;;7.90;49.00;;;;;;5064291;28;20215;-79
2022/01/18 02:23:56;;;;;;;6.55;2.85;;;7.10;50.80;;;;;;5056579;28;20505;-78
2022/01/18 02:26:21;;;;;;;9.05;3.30;;;7.10;50.20;;;;;;5064727;28;20468;-79
2022/01/18 02:28:47;;;;;;;8.80;2.63;;;7.00;51.30;;;;;;5053855;28;20055;-79
2022/01/18 02:31:13;;;;;;;7.00;2.20;;;7.50;50.70;;;;;;5055493;28;20037;-82
2022/01/18 02:33:39;;;;;;;10.52;2.50;;;7.60;49.90;;;;;;5053538;28;20028;-79
2022/01/18 02:36:09;;;;;;;7.40;2.33;;;7.70;49.60;;;;;;5066102;28;20085;-83
2022/01/18 02:38:35;;;;;;;8.40;2.67;;;7.40;50.10;;;;;;5054202;28;20037;-78
2022/01/18 02:41:01;;;;;;;7.43;2.30;;;7.10;50.80;;;;;;5054457;28;20115;-79
2022/01/18 02:43:50;;;;;;;6.38;2.28;;;7.00;51.40;;;;;;5070311;28;20115;-79
2022/01/18 02:46:16;;;;;;;6.95;2.47;;;7.00;51.20;;;;;;5060082;28;20036;-77
2022/01/18 02:48:42;;;;;;;9.23;2.50;;;6.30;52.30;;;;;;5055602;28;20021;-79
2022/01/18 02:51:09;;;;;;;6.05;2.30;;;6.10;53.10;;;;;;5052888;28;20404;-78
2022/01/18 02:54:00;;;;;;;6.93;2.20;;;6.00;52.90;;;;;;5054383;28;20021;-80
2022/01/18 02:56:35;;;;;;;9.90;2.53;;;6.70;52.10;;;;;;5063572;28;20059;-78
2022/01/18 02:59:29;;;;;;;5.90;2.50;;;6.90;50.90;;;;;;5069151;28;20025;-80
2022/01/18 03:04:40;;;;;;;8.48;2.20;;;7.30;51.10;;;;;;5059004;28;20120;-78
2022/01/18 03:07:06;;;;;;;5.82;2.63;;;7.00;51.00;;;;;;5059948;28;20033;-78
2022/01/18 03:09:32;;;;;;;7.47;2.60;;;6.80;51.30;;;;;;5073559;28;20033;-77
2022/01/18 03:11:58;;;;;;;8.90;2.40;;;6.70;52.30;;;;;;5072360;28;20031;-78
2022/01/18 03:14:24;;;;;;;5.85;2.55;;;6.50;52.30;;;;;;5072576;28;20123;-77
2022/01/18 03:16:50;;;;;;;9.68;2.65;;;6.40;52.10;;;;;;5070290;28;20092;-79
2022/01/18 03:19:16;;;;;;;9.05;2.42;;;6.30;52.50;;;;;;5053980;28;20052;-78
2022/01/18 03:21:42;;;;;;;10.73;2.28;;;6.10;52.50;;;;;;5052822;28;20387;-78
2022/01/18 03:24:59;;;;;;;8.82;2.20;;;6.00;53.20;;;;;;5052627;28;20036;-78
2022/01/18 03:29:41;;;;;;;6.65;2.03;;;6.60;51.90;;;;;;5054804;28;20063;-79
2022/01/18 03:32:07;;;;;;;9.00;2.42;;;7.00;51.10;;;;;;5053840;28;20388;-78
2022/01/18 03:34:33;;;;;;;8.45;2.30;;;7.00;51.40;;;;;;5053406;28;20087;-78
2022/01/18 03:36:59;;;;;;;8.32;2.15;;;7.40;50.30;;;;;;5057383;28;20032;-78
2022/01/18 03:39:25;;;;;;;7.15;2.58;;;7.30;50.20;;;;;;5066425;28;20589;-78
2022/01/18 03:42:16;;;;;;;8.75;3.33;;;7.50;50.30;;;;;;5061932;28;20036;-78
2022/01/18 03:44:42;;;;;;;6.43;2.10;;;7.50;50.30;;;;;;5062691;28;20032;-79
2022/01/18 03:47:08;;;;;;;8.18;2.20;;;7.40;50.00;;;;;;5058288;28;20025;-78
2022/01/18 03:49:36;;;;;;;8.82;3.10;;;7.00;50.50;;;;;;5071453;28;20491;-78
2022/01/18 03:52:02;;;;;;;9.95;2.58;;;7.30;50.60;;;;;;5072237;28;20116;-78
2022/01/18 03:54:28;;;;;;;7.63;2.22;;;7.10;50.50;;;;;;5070407;28;20029;-78
2022/01/18 03:56:53;;;;;;;9.07;2.20;;;7.40;50.70;;;;;;5062599;28;20031;-78
2022/01/18 03:59:19;;;;;;;5.50;2.00;;;7.50;50.30;;;;;;5060434;28;20471;-81
2022/01/18 04:01:45;;;;;;;9.00;2.63;;;7.50;50.20;;;;;;5070293;28;20134;-80
2022/01/18 04:04:10;;;;;;;7.15;2.97;;;7.30;50.40;;;;;;5069872;28;20013;-79
2022/01/18 04:06:36;;;;;;;10.38;2.35;;;6.90;51.00;;;;;;5053843;28;20115;-78
2022/01/18 04:09:02;;;;;;;8.55;2.33;;;6.80;52.20;;;;;;5071570;28;20024;-78
2022/01/18 04:11:28;;;;;;;8.93;2.40;;;7.20;51.40;;;;;;5072562;28;20040;-78
2022/01/18 04:13:54;;;;;;;7.82;2.42;;;7.30;50.60;;;;;;5072419;28;20103;-80
2022/01/18 04:16:19;;;;;;;9.52;2.40;;;6.90;52.00;;;;;;5072785;28;20474;-78
2022/01/18 04:29:09;;;;;;;7.85;2.00;;;6.00;53.00;;;;;;5056537;28;20029;-77
2022/01/18 04:31:36;;;;;;;5.95;2.35;;;5.20;55.10;;;;;;5071194;28;20033;-79
2022/01/18 04:34:02;;;;;;;9.60;2.13;;;5.40;55.20;;;;;;5072526;28;20020;-79
2022/01/18 04:36:28;;;;;;;10.30;2.92;;;5.90;53.90;;;;;;5070795;28;20029;-79
2022/01/18 04:38:54;;;;;;;9.32;2.63;;;5.90;54.20;;;;;;5070347;28;20027;-78
2022/01/18 04:41:26;;;;;;;8.65;2.25;;;6.10;53.30;;;;;;5059236;28;20383;-78
2022/01/18 04:49:11;;;;;;;6.30;2.47;;;6.90;52.00;;;;;;5053057;28;20040;-78
2022/01/18 04:51:37;;;;;;;6.57;2.25;;;6.80;51.40;;;;;;5056569;28;20033;-79
2022/01/18 04:54:07;;;;;;;7.00;2.00;;;6.90;52.30;;;;;;5055511;28;20485;-79
2022/01/18 04:59:07;;;;;;;7.03;2.35;;;6.30;52.60;;;;;;5055139;28;20440;-79
2022/01/18 05:01:33;;;;;;;16.98;3.53;;;5.90;53.80;;;;;;5065393;28;20037;-78
2022/01/18 05:03:59;;;;;;;8.02;3.13;;;5.70;54.40;;;;;;5057226;28;20415;-79
2022/01/18 05:06:24;;;;;;;9.52;3.10;;;5.70;54.60;;;;;;5051438;28;20083;-81
2022/01/18 05:08:50;;;;;;;10.32;2.88;;;5.50;55.20;;;;;;5053820;28;20025;-78
2022/01/18 05:11:19;;;;;;;11.50;3.00;;;6.00;54.40;;;;;;5053207;28;20037;-79
2022/01/18 05:14:02;;;;;;;10.35;2.88;;;6.30;53.80;;;;;;5058045;28;20033;-78
2022/01/18 05:19:13;;;;;;;8.52;2.92;;;6.70;52.70;;;;;;5065068;28;20033;-78
2022/01/18 05:24:27;;;;;;;9.55;2.95;;;6.40;53.60;;;;;;5076222;28;20044;-85
2022/01/18 05:26:54;;;;;;;8.63;2.85;;;6.80;52.90;;;;;;5073571;28;20025;-87
2022/01/18 05:29:21;;;;;;;9.30;3.25;;;6.70;52.80;;;;;;5058305;28;20035;-88
2022/01/18 05:31:46;;;;;;;5.90;2.10;;;6.80;53.00;;;;;;5063217;28;20024;-80
2022/01/18 05:34:13;;;;;;;8.23;2.83;;;6.70;52.80;;;;;;5066204;28;20024;-78
2022/01/18 05:36:39;;;;;;;7.38;2.63;;;6.30;54.00;;;;;;5075429;28;20024;-80
2022/01/18 05:39:06;;;;;;;9.68;3.22;;;6.50;53.70;;;;;;5075320;28;20086;-79
2022/01/18 05:41:32;;;;;;;6.82;2.28;;;6.20;53.90;;;;;;5076793;28;20020;-79
2022/01/18 05:43:57;;;;;;;8.75;3.10;;;6.40;54.60;;;;;;5075827;28;20433;-85
2022/01/18 05:46:24;;;;;;;10.75;2.50;;;6.20;54.50;;;;;;5075464;28;20107;-81
2022/01/18 05:48:50;;;;;;;7.68;2.40;;;6.40;54.20;;;;;;5075575;28;20029;-80
2022/01/18 05:51:16;;;;;;;10.93;4.13;;;6.40;54.00;;;;;;5059193;28;20045;-91
2022/01/18 05:53:41;;;;;;;11.75;2.80;;;6.10;54.70;;;;;;5055867;28;20078;-78
2022/01/18 05:56:11;;;;;;;8.00;3.03;;;6.10;55.30;;;;;;5054471;28;20492;-83
2022/01/18 05:58:44;;;;;;;7.28;2.45;;;6.20;54.80;;;;;;5055878;28;20028;-79
2022/01/18 06:01:10;;;;;;;9.93;2.97;;;5.40;56.30;;;;;;5055309;28;20051;-83
2022/01/18 06:03:53;;;;;;;10.88;2.92;;;5.60;56.60;;;;;;5064684;28;20040;-80
2022/01/18 06:09:03;;;;;;;8.70;2.80;;;5.20;57.80;;;;;;5075136;28;20055;-79
2022/01/18 06:11:29;;;;;;;7.07;3.08;;;5.40;57.00;;;;;;5075164;28;20392;-87
2022/01/18 06:13:55;;;;;;;10.70;2.63;;;5.50;56.80;;;;;;5075402;28;20519;-93
2022/01/18 06:16:20;;;;;;;8.40;3.47;;;5.60;56.70;;;;;;5074873;28;20055;-92
2022/01/18 06:18:46;;;;;;;12.48;3.95;;;5.80;56.40;;;;;;5075067;28;20017;-79
2022/01/18 06:21:12;;;;;;;8.32;3.15;;;6.30;55.50;;;;;;5074746;28;20025;-91
2022/01/18 06:23:37;;;;;;;16.35;5.65;;;6.30;54.90;;;;;;5074918;28;20020;-79
2022/01/18 06:26:04;;;;;;;12.68;3.20;;;5.90;55.60;;;;;;5074986;28;20028;-94
2022/01/18 06:28:32;;;;;;;11.02;3.70;;;5.80;56.00;;;;;;5076308;28;20099;-91
2022/01/18 06:30:57;;;;;;;11.70;3.75;;;5.90;55.90;;;;;;5074140;28;20039;-79
2022/01/18 06:33:23;;;;;;;9.95;3.47;;;5.80;55.70;;;;;;5074819;28;20029;-79
2022/01/18 06:35:49;;;;;;;16.30;4.95;;;6.00;56.30;;;;;;5073417;28;20399;-79
2022/01/18 06:38:14;;;;;;;8.93;3.17;;;5.70;56.00;;;;;;5075431;28;20027;-94
2022/01/18 06:40:40;;;;;;;12.15;4.68;;;5.80;56.20;;;;;;5076782;28;20426;-88
2022/01/18 06:43:06;;;;;;;9.13;3.30;;;6.20;55.70;;;;;;5075336;28;20027;-87
2022/01/18 06:45:32;;;;;;;9.68;3.33;;;6.30;55.10;;;;;;5075786;28;20494;-91
2022/01/18 06:47:58;;;;;;;14.18;3.20;;;6.40;54.70;;;;;;5075950;28;20025;-79
2022/01/18 06:50:24;;;;;;;11.80;3.83;;;6.40;55.10;;;;;;5075036;28;20040;-79
2022/01/18 06:52:50;;;;;;;10.10;3.22;;;6.30;55.20;;;;;;5074459;28;20028;-90
2022/01/18 06:55:15;;;;;;;9.63;2.92;;;6.40;54.90;;;;;;5075379;28;20029;-92
2022/01/18 06:57:41;;;;;;;10.88;2.70;;;6.90;54.10;;;;;;5072526;28;20023;-89
2022/01/18 07:00:08;;;;;;;9.48;3.22;;;6.70;54.20;;;;;;5077802;28;20036;-94
2022/01/18 07:02:33;;;;;;;14.93;4.60;;;6.70;54.70;;;;;;5076399;28;20028;-92
2022/01/18 07:04:59;;;;;;;12.10;4.45;;;6.70;54.80;;;;;;5077130;28;20494;-80
2022/01/18 07:07:25;;;;;;;10.50;3.45;;;6.30;55.30;;;;;;5077406;28;20113;-86
2022/01/18 07:09:51;;;;;;;11.43;4.18;;;6.30;56.00;;;;;;5075751;28;20486;-79
2022/01/18 07:12:18;;;;;;;9.77;4.28;;;6.30;55.80;;;;;;5078293;28;20102;-92
2022/01/18 07:14:44;;;;;;;11.88;4.03;;;6.40;56.10;;;;;;5077055;28;20029;-90
2022/01/18 07:17:10;;;;;;;10.40;3.50;;;6.40;55.80;;;;;;5079743;28;20025;-87
2022/01/18 07:19:38;;;;;;;9.63;3.90;;;5.50;57.80;;;;;;5081397;28;20020;-94
2022/01/18 07:22:06;;;;;;;10.93;4.30;;;5.60;57.70;;;;;;5078552;28;20100;-89
2022/01/18 07:24:44;;;;;;;12.55;4.38;;;5.80;57.40;;;;;;5076361;28;20025;-79
2022/01/18 07:27:12;;;;;;;11.73;3.47;;;6.10;57.10;;;;;;5078307;28;20027;-80
2022/01/18 07:29:44;;;;;;;9.98;4.75;;;6.10;56.70;;;;;;5077746;28;20047;-88
2022/01/18 07:32:11;;;;;;;9.10;2.95;;;6.70;55.70;;;;;;5076829;28;20055;-79
2022/01/18 07:34:41;;;;;;;9.40;3.42;;;6.80;55.60;;;;;;4734213;28;9999707;-79
2022/01/18 07:37:07;;;;;;;18.60;4.55;;;6.90;55.10;;;;;;5091665;28;20028;-81
2022/01/18 07:39:33;;;;;;;17.08;7.18;;;6.70;55.50;;;;;;5091753;28;20063;-84
2022/01/18 07:41:59;;;;;;;9.68;4.70;;;6.90;55.50;;;;;;5093121;28;20063;-84
2022/01/18 07:44:25;;;;;;;10.63;3.40;;;7.10;55.20;;;;;;5091181;28;20417;-84
2022/01/18 07:46:51;;;;;;;12.75;4.60;;;7.10;54.70;;;;;;5091916;28;20028;-84
2022/01/18 07:49:16;;;;;;;15.23;4.18;;;7.50;54.30;;;;;;5091361;28;20040;-80
2022/01/18 07:51:42;;;;;;;13.13;4.45;;;7.30;53.90;;;;;;5091972;28;20543;-79
2022/01/18 07:54:10;;;;;;;10.77;3.95;;;6.60;55.40;;;;;;5094020;28;20077;-91
2022/01/18 07:56:36;;;;;;;10.02;3.35;;;6.60;55.70;;;;;;5095336;28;20027;-95
2022/01/18 07:59:02;;;;;;;16.85;5.65;;;6.30;56.40;;;;;;5094428;28;20024;-87
2022/01/18 08:01:27;;;;;;;14.10;5.38;;;6.70;56.50;;;;;;5096021;28;20020;-82
2022/01/18 08:03:53;;;;;;;12.20;4.30;;;7.20;55.20;;;;;;5095287;28;20008;-79
2022/01/18 08:06:19;;;;;;;16.02;5.75;;;7.60;54.00;;;;;;5094671;28;20114;-80
2022/01/18 08:08:44;;;;;;;14.57;6.68;;;7.50;54.30;;;;;;5092824;28;20039;-90
2022/01/18 08:11:10;;;;;;;18.52;7.30;;;7.90;54.10;;;;;;5095296;28;20043;-87
2022/01/18 08:13:41;;;;;;;16.67;7.18;;;8.20;53.20;;;;;;5091887;28;20017;-78
2022/01/18 08:16:33;;;;;;;10.68;5.50;;;8.10;53.00;;;;;;5091554;28;20028;-80
2022/01/18 08:18:59;;;;;;;14.88;6.78;;;8.00;53.20;;;;;;5092966;28;20100;-80
2022/01/18 08:21:25;;;;;;;15.40;6.63;;;8.10;53.70;;;;;;5092000;28;20024;-80
2022/01/18 08:23:51;;;;;;;11.68;4.10;;;8.30;52.90;;;;;;5092899;28;20453;-80
2022/01/18 08:26:17;;;;;;;13.18;4.03;;;8.30;52.80;;;;;;5094448;28;20052;-81
2022/01/18 08:28:43;;;;;;;14.57;4.93;;;8.60;52.80;;;;;;5091854;28;20062;-92
2022/01/18 08:31:08;;;;;;;20.92;10.00;;;8.50;52.20;;;;;;5094110;28;20044;-82
2022/01/18 08:33:34;;;;;;;25.95;18.40;;;7.40;54.30;;;;;;5092528;28;20027;-80
2022/01/18 08:36:03;;;;;;;16.73;8.10;;;6.70;55.70;;;;;;5092370;28;20099;-80
2022/01/18 08:38:33;;;;;;;32.50;23.67;;;7.00;56.10;;;;;;5092114;28;20031;-80
2022/01/18 08:41:00;;;;;;;21.70;9.40;;;7.30;55.60;;;;;;5079518;28;20035;-81
2022/01/18 08:43:30;;;;;;;16.45;9.07;;;7.40;55.10;;;;;;5054404;28;20040;-81
2022/01/18 08:45:57;;;;;;;22.30;12.85;;;7.40;55.40;;;;;;5071022;28;20108;-81
2022/01/18 08:48:23;;;;;;;25.30;20.85;;;7.40;55.70;;;;;;5071943;28;20032;-81
2022/01/18 08:50:48;;;;;;;11.82;5.07;;;6.80;56.70;;;;;;5071022;28;20051;-80
2022/01/18 08:53:14;;;;;;;15.27;7.47;;;7.30;56.30;;;;;;5072645;28;20017;-82
2022/01/18 08:55:40;;;;;;;18.15;13.02;;;8.50;53.80;;;;;;5071948;28;20027;-81
2022/01/18 08:58:06;;;;;;;16.35;9.73;;;9.90;51.40;;;;;;5070970;28;20028;-81
2022/01/18 09:00:31;;;;;;;26.10;18.40;;;10.40;49.70;;;;;;5073100;28;20036;-83
2022/01/18 09:02:58;;;;;;;70.38;57.00;;;10.00;50.20;;;;;;5072183;28;20386;-81
2022/01/18 09:05:24;;;;;;;23.20;13.60;;;9.80;50.70;;;;;;5071950;28;20029;-80
2022/01/18 09:07:51;;;;;;;19.92;13.10;;;10.70;50.30;;;;;;5071911;28;20027;-80
2022/01/18 09:10:17;;;;;;;12.90;5.32;;;11.70;47.70;;;;;;5071281;28;20033;-80
2022/01/18 09:12:45;;;;;;;15.90;7.57;;;11.70;48.50;;;;;;5071902;28;20537;-80
2022/01/18 09:15:12;;;;;;;20.10;11.18;;;12.60;46.70;;;;;;5072563;28;20036;-79
2022/01/18 09:17:40;;;;;;;15.85;8.68;;;12.90;45.30;;;;;;5071802;28;20475;-84
2022/01/18 09:20:08;;;;;;;13.45;6.50;;;12.50;46.50;;;;;;5071610;28;20076;-79
2022/01/18 09:22:38;;;;;;;10.45;5.75;;;12.40;46.60;;;;;;5071112;28;20021;-80
2022/01/18 09:25:06;;;;;;;15.88;10.00;;;12.50;46.70;;;;;;5071418;28;20044;-79
2022/01/18 09:27:33;;;;;;;30.65;23.83;;;12.90;46.00;;;;;;5071472;28;20021;-80
2022/01/18 09:29:58;;;;;;;22.40;13.55;;;13.20;45.30;;;;;;5070832;28;20633;-80
2022/01/18 09:32:24;;;;;;;16.92;9.73;;;14.00;44.60;;;;;;5072030;28;20032;-80
2022/01/18 09:34:51;;;;;;;14.77;11.00;;;14.40;44.00;;;;;;5070138;28;20032;-79
2022/01/18 09:37:16;;;;;;;15.40;7.65;;;14.70;43.30;;;;;;5071743;28;20025;-82
2022/01/18 09:39:42;;;;;;;15.05;7.47;;;15.20;43.60;;;;;;5070401;28;20029;-80
2022/01/18 09:42:11;;;;;;;18.27;9.65;;;14.80;43.40;;;;;;5070892;28;20119;-78
2022/01/18 09:44:39;;;;;;;14.77;6.10;;;14.40;43.50;;;;;;5070394;28;20037;-80
2022/01/18 09:47:05;;;;;;;17.75;7.75;;;15.20;43.00;;;;;;5070001;28;20132;-80
2022/01/18 09:49:33;;;;;;;10.93;4.75;;;15.70;42.30;;;;;;5073668;28;20043;-82
2022/01/18 09:51:59;;;;;;;17.08;7.88;;;15.70;42.40;;;;;;5089916;28;20043;-81
2022/01/18 09:54:25;;;;;;;90.78;23.50;;;16.40;41.70;;;;;;5091483;28;20024;-81
2022/01/18 09:56:51;;;;;;;19.50;10.95;;;16.00;41.70;;;;;;5091428;28;20029;-82
2022/01/18 09:59:17;;;;;;;12.85;4.82;;;16.40;42.00;;;;;;5094425;28;20055;-81
2022/01/18 10:01:42;;;;;;;21.75;10.85;;;17.50;41.10;;;;;;5095265;28;20059;-82
2022/01/18 10:04:17;;;;;;;48.45;30.20;;;18.20;40.00;;;;;;5094788;28;20050;-79
2022/01/18 10:06:51;;;;;;;30.60;22.98;;;18.50;39.00;;;;;;5093227;28;20059;-89
2022/01/18 10:09:18;;;;;;;20.08;12.98;;;17.60;39.10;;;;;;5093066;28;20021;-79
2022/01/18 10:12:10;;;;;;;14.85;6.38;;;16.40;41.00;;;;;;5094004;28;20055;-80
2022/01/18 10:14:38;;;;;;;13.25;7.03;;;15.10;41.90;;;;;;5093472;28;20028;-88
2022/01/18 10:17:05;;;;;;;14.90;4.15;;;14.80;43.00;;;;;;5093844;28;20060;-81
2022/01/18 10:19:46;;;;;;;15.60;5.72;;;15.60;42.20;;;;;;5093670;28;20035;-79
2022/01/18 10:22:14;;;;;;;14.18;4.57;;;16.30;41.20;;;;;;5092587;28;20024;-79
2022/01/18 10:24:41;;;;;;;13.30;5.72;;;16.40;40.90;;;;;;5092357;28;20020;-81
2022/01/18 10:27:08;;;;;;;11.50;5.30;;;16.20;40.60;;;;;;5094086;28;20409;-80
2022/01/18 10:29:49;;;;;;;29.08;17.70;;;15.70;41.80;;;;;;5094290;28;20690;-80
2022/01/18 10:32:28;;;;;;;16.63;5.90;;;15.90;41.70;;;;;;5094542;28;20447;-81
2022/01/18 10:37:25;;;;;;;21.38;16.33;;;15.30;41.90;;;;;;5076026;28;20046;-81
2022/01/18 10:39:56;;;;;;;10.48;5.60;;;15.60;42.10;;;;;;5073997;28;20021;-82
2022/01/18 10:42:29;;;;;;;12.77;4.03;;;15.20;42.20;;;;;;5074385;28;20047;-80
2022/01/18 10:45:03;;;;;;;9.93;4.30;;;14.30;43.60;;;;;;5075012;28;20111;-80
2022/01/18 10:47:30;;;;;;;12.15;4.60;;;14.00;43.50;;;;;;5076782;28;20519;-80
2022/01/18 10:49:57;;;;;;;12.25;5.15;;;14.20;43.20;;;;;;5076344;28;20037;-81
2022/01/18 10:52:26;;;;;;;12.13;7.50;;;14.10;43.80;;;;;;5076739;28;20120;-90
2022/01/18 10:54:57;;;;;;;11.63;4.68;;;14.10;43.50;;;;;;5073028;28;20038;-92
2022/01/18 10:57:33;;;;;;;14.45;5.80;;;14.70;43.50;;;;;;5073883;28;20012;-93
2022/01/18 11:00:17;;;;;;;12.80;5.80;;;15.40;41.70;;;;;;5075684;28;20028;-80
2022/01/18 11:02:45;;;;;;;10.68;5.43;;;14.90;42.70;;;;;;5076376;28;20017;-79
2022/01/18 11:05:15;;;;;;;12.93;5.05;;;13.60;42.90;;;;;;5074886;28;20081;-81
2022/01/18 11:07:42;;;;;;;11.50;3.90;;;13.00;45.30;;;;;;5074807;28;20103;-80
2022/01/18 11:10:09;;;;;;;11.63;4.10;;;12.50;46.00;;;;;;5074389;28;20043;-79
2022/01/18 11:13:18;;;;;;;10.38;3.60;;;12.70;45.70;;;;;;5074967;28;20032;-82
2022/01/18 11:15:47;;;;;;;9.02;3.75;;;12.50;45.20;;;;;;5075609;28;20058;-83
2022/01/18 11:18:25;;;;;;;10.13;4.28;;;12.40;45.80;;;;;;5075932;28;20056;-81
2022/01/18 11:20:51;;;;;;;13.77;6.22;;;12.30;45.40;;;;;;5074170;28;20335;-81
2022/01/18 11:23:17;;;;;;;10.77;4.43;;;11.90;46.40;;;;;;5075618;28;20302;-79
2022/01/18 11:25:45;;;;;;;10.95;3.78;;;10.80;47.00;;;;;;5074234;28;20034;-80
2022/01/18 11:28:12;;;;;;;15.68;6.15;;;10.60;48.40;;;;;;5075822;28;20081;-80
2022/01/18 11:30:44;;;;;;;15.13;7.68;;;10.30;48.10;;;;;;5074162;28;20494;-81
2022/01/18 11:33:13;;;;;;;12.15;6.47;;;10.20;48.80;;;;;;5074362;28;20063;-80
2022/01/18 11:35:51;;;;;;;12.48;3.70;;;9.60;49.10;;;;;;5073932;28;20035;-80
2022/01/18 11:38:21;;;;;;;19.63;7.57;;;9.20;50.20;;;;;;5074237;28;20020;-81
2022/01/18 11:40:50;;;;;;;11.82;4.43;;;9.20;50.90;;;;;;5073852;28;20032;-81
2022/01/18 11:43:40;;;;;;;10.55;3.88;;;9.60;50.00;;;;;;5075481;28;20021;-81
2022/01/18 11:46:21;;;;;;;10.38;4.32;;;9.50;49.90;;;;;;5074917;28;20028;-81
2022/01/18 11:48:48;;;;;;;14.35;5.88;;;9.90;50.30;;;;;;5075173;28;20079;-82
2022/01/18 11:51:18;;;;;;;16.85;9.93;;;10.00;49.30;;;;;;5073384;28;20055;-79
2022/01/18 11:56:35;;;;;;;18.70;7.70;;;10.00;49.60;;;;;;5074939;28;20383;-80
2022/01/18 11:59:15;;;;;;;20.13;8.10;;;9.80;49.90;;;;;;5057346;28;20161;-79
2022/01/18 12:01:57;;;;;;;13.63;6.07;;;9.80;50.10;;;;;;5073672;28;20028;-81
2022/01/18 12:04:42;;;;;;;13.30;6.32;;;9.40;50.40;;;;;;5075017;28;20035;-82
2022/01/18 12:07:10;;;;;;;25.05;16.23;;;9.10;50.50;;;;;;5073285;28;20028;-79
2022/01/18 12:09:47;;;;;;;20.98;12.40;;;8.80;50.90;;;;;;5074831;28;20028;-81
2022/01/18 12:12:40;;;;;;;20.83;12.63;;;8.70;51.30;;;;;;5073589;28;20470;-79
2022/01/18 12:15:15;;;;;;;27.20;17.02;;;9.00;51.20;;;;;;5073481;28;20550;-79
2022/01/18 12:17:52;;;;;;;16.90;9.13;;;9.00;50.90;;;;;;5074326;28;20028;-80
2022/01/18 12:20:46;;;;;;;28.50;18.90;;;8.70;51.10;;;;;;5074573;28;20396;-93
2022/01/18 12:23:25;;;;;;;48.80;30.67;;;8.70;50.90;;;;;;5073767;28;20039;-92
2022/01/18 12:26:11;;;;;;;10.43;4.22;;;8.90;50.50;;;;;;5074023;28;20028;-79
2022/01/18 12:34:40;;;;;;;17.10;8.63;;;8.90;50.40;;;;;;5073720;28;20479;-91
2022/01/18 12:39:53;;;;;;;26.05;16.50;;;9.30;50.80;;;;;;5074942;28;20097;-80
2022/01/18 12:45:03;;;;;;;18.00;12.13;;;9.10;50.30;;;;;;5074843;28;20367;-83
2022/01/18 12:47:30;;;;;;;26.35;19.10;;;9.20;50.50;;;;;;5073288;28;20059;-81
2022/01/18 12:49:55;;;;;;;15.00;10.57;;;9.20;50.40;;;;;;5073490;28;20048;-91
2022/01/18 12:52:22;;;;;;;18.05;9.13;;;9.20;50.00;;;;;;5075223;28;20138;-82
2022/01/18 12:54:48;;;;;;;13.82;8.68;;;9.10;50.70;;;;;;5074199;28;20028;-80
2022/01/18 12:57:23;;;;;;;24.17;16.90;;;9.20;50.40;;;;;;5073619;28;20028;-91
2022/01/18 13:00:11;;;;;;;29.42;18.55;;;9.00;50.40;;;;;;5073860;28;20055;-80
2022/01/18 13:02:37;;;;;;;15.70;9.13;;;8.90;50.40;;;;;;5075254;28;20079;-89
2022/01/18 13:05:04;;;;;;;38.10;23.15;;;8.70;50.80;;;;;;5074895;28;20487;-80
2022/01/18 13:07:30;;;;;;;29.95;17.77;;;8.80;50.60;;;;;;5074122;28;20084;-82
2022/01/18 13:10:09;;;;;;;31.45;17.67;;;9.20;50.10;;;;;;5074144;28;20032;-79
2022/01/18 13:12:39;;;;;;;35.13;19.98;;;9.30;50.20;;;;;;5073139;28;20452;-81
2022/01/18 13:15:08;;;;;;;70.72;43.38;;;9.80;49.80;;;;;;5074215;28;20020;-80
2022/01/18 13:23:26;;;;;;;23.42;13.25;;;9.30;48.90;;;;;;5074385;28;20040;-80
2022/01/18 13:25:58;;;;;;;17.95;7.45;;;9.50;49.00;;;;;;5073142;28;20383;-86
2022/01/18 13:28:39;;;;;;;43.20;26.38;;;9.50;49.10;;;;;;5072520;28;20054;-81
2022/01/18 13:31:22;;;;;;;16.60;9.68;;;9.40;49.40;;;;;;5074713;28;20060;-80
2022/01/18 13:34:10;;;;;;;24.17;14.73;;;9.20;49.80;;;;;;5076189;28;20025;-80
2022/01/18 13:36:52;;;;;;;9.57;4.30;;;9.30;49.80;;;;;;5076585;28;20017;-79
2022/01/18 13:39:28;;;;;;;25.50;12.52;;;9.40;49.60;;;;;;5076901;28;20020;-79
2022/01/18 13:41:55;;;;;;;45.20;27.20;;;9.80;49.10;;;;;;5077925;28;20430;-80
2022/01/18 13:44:22;;;;;;;21.15;11.80;;;9.80;48.60;;;;;;5077542;28;20064;-82
2022/01/18 13:46:49;;;;;;;27.52;14.35;;;9.50;49.30;;;;;;5078041;28;20032;-80
2022/01/18 13:49:15;;;;;;;24.23;12.00;;;9.70;49.30;;;;;;5076788;28;20054;-85
2022/01/18 13:52:06;;;;;;;34.80;19.98;;;9.80;49.00;;;;;;5079480;28;20032;-84
2022/01/18 13:54:50;;;;;;;42.42;22.65;;;9.60;49.10;;;;;;5076976;28;20025;-92
2022/01/18 13:57:18;;;;;;;78.65;38.78;;;9.60;49.00;;;;;;5077723;28;20617;-80
2022/01/18 13:59:45;;;;;;;17.60;6.88;;;9.30;49.40;;;;;;5076050;28;20020;-94
2022/01/18 14:02:23;;;;;;;30.60;13.00;;;9.30;49.80;;;;;;5076697;28;20020;-79
2022/01/18 14:05:11;;;;;;;55.95;26.85;;;9.40;49.20;;;;;;5078513;28;20046;-83
2022/01/18 14:07:36;;;;;;;49.70;25.50;;;9.20;49.10;;;;;;5077558;28;20031;-84
2022/01/18 14:10:04;;;;;;;51.67;25.48;;;8.80;49.80;;;;;;5076340;28;20036;-82
2022/01/18 14:12:31;;;;;;;52.45;25.35;;;8.70;50.70;;;;;;5076337;28;20475;-80
2022/01/18 14:14:57;;;;;;;21.00;13.07;;;9.20;49.90;;;;;;5076753;28;20347;-87
2022/01/18 14:17:23;;;;;;;15.23;9.63;;;9.00;49.20;;;;;;5077531;28;20102;-81
2022/01/18 14:19:51;;;;;;;13.80;6.15;;;8.80;50.10;;;;;;5076806;28;20056;-82
2022/01/18 14:22:18;;;;;;;16.45;6.82;;;9.00;50.20;;;;;;5076990;28;20032;-94
2022/01/18 14:24:50;;;;;;;85.60;63.30;;;9.60;49.10;;;;;;5079620;28;20017;-91
2022/01/18 14:27:25;;;;;;;41.92;26.38;;;8.90;49.10;;;;;;5076613;28;20032;-85
2022/01/18 14:29:54;;;;;;;42.08;21.50;;;8.90;50.40;;;;;;5079355;28;20059;-80